Terminal Aerodrome Forecast
Issued by NWS

Home | Current Version | Previous Version | Text Only | Print | Product List | Glossary On
Versions: 1 2 3 4 5 6 7 8 9 10 11 12 13 14 15 16 17 18 19 20 21 22 23 24 25 26
000
FTUS45 KLKN 051124
TAFTPH
TAF
KTPH 051124Z 0512/0612 35010KT P6SM FEW100 BKN200
     FM052200 VRB15G25KT P6SM VCTS SCT100CB BKN150
     FM060200 32012KT P6SM SCT120 OVC200
     FM060600 35008KT P6SM BKN120 OVC200=

USA.gov is the U.S. government's official web portal to all federal, state and local government web resources and services.